createdAt,value
2019-01-25T00:00:52.107Z,73.26
2019-01-25T00:01:52.115Z,73.06
2019-01-25T00:02:52.072Z,73.37
2019-01-25T00:03:52.125Z,73.29
2019-01-25T00:04:52.241Z,72.94
2019-01-25T00:05:52.192Z,72.56
2019-01-25T00:06:52.067Z,72.81
2019-01-25T00:07:52.104Z,72.18
2019-01-25T00:08:52.138Z,72.19
2019-01-25T00:09:59.083Z,72.37
2019-01-25T00:10:52.040Z,72.17
2019-01-25T00:11:52.039Z,72.45
2019-01-25T00:12:52.066Z,72.66
2019-01-25T00:13:52.303Z,72.72
2019-01-25T00:14:52.044Z,71.91
2019-01-25T00:15:52.003Z,71.77
2019-01-25T00:16:51.995Z,71.86
2019-01-25T00:17:52.027Z,72.08
2019-01-25T00:18:52.006Z,72.15
2019-01-25T00:19:51.706Z,71.95
2019-01-25T00:20:51.970Z,71.62
2019-01-25T00:21:52.100Z,71.78
2019-01-25T00:22:52.001Z,71.47
2019-01-25T00:23:52.243Z,71.29
2019-01-25T00:24:52.264Z,71.67
2019-01-25T00:25:52.287Z,71.67
2019-01-25T00:26:52.129Z,71.8
2019-01-25T00:27:51.905Z,71.95
2019-01-25T00:28:52.362Z,71.39
2019-01-25T00:29:52.129Z,71.85
2019-01-25T00:30:52.208Z,71.67
2019-01-25T00:31:51.976Z,71.8
2019-01-25T00:32:52.236Z,72.26
2019-01-25T00:33:52.075Z,71.63
2019-01-25T00:34:52.137Z,71.27
2019-01-25T00:35:52.117Z,71.49
2019-01-25T00:36:52.511Z,71.69
2019-01-25T00:37:51.906Z,70.98
2019-01-25T00:38:52.274Z,71.32
2019-01-25T00:39:52.125Z,71.77
2019-01-25T00:40:52.179Z,72
2019-01-25T00:41:51.972Z,71.95
2019-01-25T00:42:52.302Z,71.7
2019-01-25T00:43:53.705Z,72.07
2019-01-25T00:44:52.224Z,72.19
2019-01-25T00:45:52.212Z,72.25
2019-01-25T00:46:52.224Z,72.39
2019-01-25T00:47:51.976Z,72.22
2019-01-25T00:48:51.898Z,71.57
2019-01-25T00:49:52.288Z,71.54
2019-01-25T00:50:51.992Z,71.36
2019-01-25T00:51:52.196Z,71.6
2019-01-25T00:52:52.192Z,71.56
2019-01-25T00:53:52.198Z,72
2019-01-25T00:54:51.943Z,71.85
2019-01-25T00:55:52.303Z,72.01
2019-01-25T00:56:52.038Z,71.87
2019-01-25T00:57:52.042Z,71.9
2019-01-25T00:58:52.380Z,72.01
2019-01-25T00:59:52.123Z,71.95
2019-01-25T01:00:51.988Z,72.14
2019-01-25T01:01:52.249Z,72.05
2019-01-25T01:02:51.846Z,72.05
2019-01-25T01:03:53.700Z,72.15
2019-01-25T01:04:52.148Z,72.27
2019-01-25T01:05:52.159Z,72.34
2019-01-25T01:06:52.063Z,72.5
2019-01-25T01:07:51.832Z,72.43
2019-01-25T01:08:51.879Z,72.43
2019-01-25T01:09:52.278Z,72.65
2019-01-25T01:10:51.866Z,72.87
2019-01-25T01:11:51.895Z,73.42
2019-01-25T01:12:51.991Z,73.59
2019-01-25T01:13:51.848Z,73.69
2019-01-25T01:14:52.062Z,73.75
2019-01-25T01:15:51.940Z,73.85
2019-01-25T01:16:52.185Z,73.88
2019-01-25T01:17:52.150Z,73.83
2019-01-25T01:18:52.142Z,73.79
2019-01-25T01:19:51.943Z,73.73
2019-01-25T01:20:53.161Z,73.55
2019-01-25T01:21:52.274Z,73.35
2019-01-25T01:22:51.827Z,73.55
2019-01-25T01:23:53.663Z,73.52
2019-01-25T01:24:52.336Z,72.97
2019-01-25T01:25:51.944Z,72.98
2019-01-25T01:26:52.139Z,72.73
2019-01-25T01:27:51.809Z,73.06
2019-01-25T01:28:52.006Z,73.17
2019-01-25T01:29:52.727Z,73.08
2019-01-25T01:30:52.051Z,72.9
2019-01-25T01:31:52.914Z,72.59
2019-01-25T01:32:53.182Z,72.56
2019-01-25T01:33:52.240Z,72.91
2019-01-25T01:34:52.399Z,73.13
2019-01-25T01:35:52.017Z,73.2
2019-01-25T01:36:52.221Z,73.12
2019-01-25T01:37:51.975Z,72.93
2019-01-25T01:38:51.866Z,72.66
2019-01-25T01:39:51.880Z,72.61
2019-01-25T01:40:52.207Z,72.52
2019-01-25T01:41:52.105Z,72.02
2019-01-25T01:42:52.017Z,71.75
2019-01-25T01:43:52.003Z,71.74
2019-01-25T01:44:51.828Z,71.5
2019-01-25T01:45:51.790Z,71.56
2019-01-25T01:46:52.113Z,72.3
2019-01-25T01:47:52.134Z,72.07
2019-01-25T01:48:51.822Z,72.01
2019-01-25T01:49:51.774Z,71.83
2019-01-25T01:50:52.259Z,72.1
2019-01-25T01:51:52.211Z,72.38
2019-01-25T01:52:51.779Z,72.31
2019-01-25T01:53:51.862Z,72.55
2019-01-25T01:54:51.795Z,71.97
2019-01-25T01:55:52.103Z,71.95
2019-01-25T01:56:52.155Z,72.33
2019-01-25T01:57:52.089Z,72.23
2019-01-25T01:58:51.794Z,72.3
2019-01-25T01:59:51.852Z,72.21
2019-01-25T02:00:51.941Z,72.45
2019-01-25T02:01:51.963Z,72.42
2019-01-25T02:02:51.748Z,72.37
2019-01-25T02:03:51.778Z,72.2
2019-01-25T02:04:51.769Z,72.07
2019-01-25T02:05:51.800Z,72.1
2019-01-25T02:06:52.101Z,72.05
2019-01-25T02:07:51.800Z,72.12
2019-01-25T02:08:51.941Z,72.13
2019-01-25T02:09:51.846Z,72.11
2019-01-25T02:10:51.796Z,71.97
2019-01-25T02:11:51.732Z,71.79
2019-01-25T02:12:51.787Z,71.88
2019-01-25T02:13:51.773Z,72.05
2019-01-25T02:14:51.825Z,71.85
2019-01-25T02:15:52.210Z,71.56
2019-01-25T02:16:51.790Z,71.45
2019-01-25T02:17:51.791Z,71.85
2019-01-25T02:18:51.769Z,71.91
2019-01-25T02:19:51.761Z,72
2019-01-25T02:20:51.801Z,71.98
2019-01-25T02:21:53.339Z,71.99
2019-01-25T02:22:51.723Z,71.98
2019-01-25T02:23:51.806Z,71.75
2019-01-25T02:24:51.830Z,71.85
2019-01-25T02:25:51.857Z,72.12
2019-01-25T02:26:51.722Z,72.39
2019-01-25T02:27:51.764Z,72.45
2019-01-25T02:28:52.109Z,72.4
2019-01-25T02:29:51.887Z,72.63
2019-01-25T02:30:51.925Z,72.74
2019-01-25T02:31:52.174Z,72.83
2019-01-25T02:32:51.953Z,72.72
2019-01-25T02:33:51.736Z,72.28
2019-01-25T02:34:51.943Z,72.07
2019-01-25T02:35:52.164Z,72.19
2019-01-25T02:36:51.996Z,72.3
2019-01-25T02:37:51.740Z,72.59
2019-01-25T02:38:51.815Z,72.79
2019-01-25T02:39:51.727Z,72.86
2019-01-25T02:40:52.291Z,73.02
2019-01-25T02:41:52.093Z,72.95
2019-01-25T02:42:51.830Z,72.94
2019-01-25T02:43:51.913Z,73.02
2019-01-25T02:44:51.736Z,73.13
2019-01-25T02:45:51.944Z,73.15
2019-01-25T02:46:51.708Z,73.06
2019-01-25T02:47:51.730Z,73.12
2019-01-25T02:48:51.811Z,72.77
2019-01-25T02:49:52.044Z,72.69
2019-01-25T02:50:51.954Z,72.75
2019-01-25T02:51:51.985Z,72.76
2019-01-25T02:52:51.954Z,72.78
2019-01-25T02:53:52.601Z,72.77
2019-01-25T02:54:51.862Z,72.92
2019-01-25T02:55:51.749Z,72.99
2019-01-25T02:56:51.847Z,72.95
2019-01-25T02:57:51.696Z,72.89
2019-01-25T02:58:51.747Z,72.67
2019-01-25T02:59:51.705Z,72.73
2019-01-25T03:00:51.906Z,72.73
2019-01-25T03:01:51.723Z,72.89
2019-01-25T03:02:51.788Z,72.72
2019-01-25T03:03:51.864Z,72.7
2019-01-25T03:04:51.850Z,72.82
2019-01-25T03:05:52.009Z,72.69
2019-01-25T03:06:52.168Z,72.86
2019-01-25T03:07:51.768Z,72.93
2019-01-25T03:08:52.349Z,72.9
2019-01-25T03:09:52.212Z,73.03
2019-01-25T03:10:51.785Z,72.93
2019-01-25T03:11:51.735Z,72.94
2019-01-25T03:12:51.871Z,72.91
2019-01-25T03:13:51.765Z,73.02
2019-01-25T03:14:51.703Z,72.95
2019-01-25T03:15:51.692Z,72.83
2019-01-25T03:16:51.747Z,72.77
2019-01-25T03:17:51.794Z,72.83
2019-01-25T03:18:51.766Z,72.73
2019-01-25T03:19:51.783Z,72.74
2019-01-25T03:20:51.638Z,72.72
2019-01-25T03:21:51.735Z,72.8
2019-01-25T03:22:51.984Z,72.87
2019-01-25T03:23:51.651Z,72.85
2019-01-25T03:24:51.776Z,72.77
2019-01-25T03:25:51.914Z,73.03
2019-01-25T03:26:51.778Z,72.96
2019-01-25T03:27:52.107Z,72.98
2019-01-25T03:28:51.938Z,72.76
2019-01-25T03:29:52.037Z,72.84
2019-01-25T03:30:51.861Z,72.83
2019-01-25T03:31:51.712Z,72.85
2019-01-25T03:32:51.835Z,72.86
2019-01-25T03:33:52.320Z,72.76
2019-01-25T03:34:51.638Z,72.76
2019-01-25T03:35:51.748Z,72.63
2019-01-25T03:36:51.704Z,72.65
2019-01-25T03:37:51.682Z,72.76
2019-01-25T03:38:51.652Z,72.69
2019-01-25T03:39:51.784Z,72.38
2019-01-25T03:40:55.725Z,72.57
2019-01-25T03:41:53.318Z,72.68
2019-01-25T03:42:52.129Z,72.94
2019-01-25T03:43:51.698Z,72.87
2019-01-25T03:44:51.708Z,72.95
2019-01-25T03:45:51.946Z,72.87
2019-01-25T03:46:51.824Z,72.94
2019-01-25T03:47:51.657Z,72.92
2019-01-25T03:48:51.860Z,72.92
2019-01-25T03:49:51.694Z,72.91
2019-01-25T03:50:51.694Z,72.99
2019-01-25T03:51:51.774Z,72.79
2019-01-25T03:52:51.614Z,72.92
2019-01-25T03:53:51.585Z,73.06
2019-01-25T03:54:51.865Z,72.88
2019-01-25T03:55:51.624Z,72.86
2019-01-25T03:56:51.641Z,72.95
2019-01-25T03:57:51.600Z,72.97
2019-01-25T03:58:51.772Z,72.89
2019-01-25T03:59:51.602Z,72.97
2019-01-25T04:00:51.660Z,73.04
2019-01-25T04:01:51.646Z,73.03
2019-01-25T04:02:51.595Z,72.89
2019-01-25T04:03:51.576Z,72.96
2019-01-25T04:04:51.657Z,73.05
2019-01-25T04:05:51.601Z,73.22
2019-01-25T04:06:51.762Z,73.34
2019-01-25T04:07:51.638Z,73.2
2019-01-25T04:08:51.779Z,73.31
2019-01-25T04:09:51.680Z,73.3
2019-01-25T04:10:51.709Z,73.41
2019-01-25T04:11:51.666Z,73.41
2019-01-25T04:12:51.704Z,73.44
2019-01-25T04:13:51.863Z,73.41
2019-01-25T04:14:51.668Z,73.51
2019-01-25T04:15:51.981Z,73.63
2019-01-25T04:16:51.623Z,73.55
2019-01-25T04:17:51.582Z,73.56
2019-01-25T04:18:52.886Z,73.5
2019-01-25T04:19:51.708Z,73.48
2019-01-25T04:20:51.553Z,73.66
2019-01-25T04:21:51.740Z,73.64
2019-01-25T04:22:51.873Z,73.74
2019-01-25T04:23:51.543Z,73.67
2019-01-25T04:24:51.527Z,73.65
2019-01-25T04:25:51.510Z,73.64
2019-01-25T04:26:51.597Z,73.68
2019-01-25T04:27:51.571Z,73.71
2019-01-25T04:28:51.835Z,73.76
2019-01-25T04:29:51.643Z,73.85
2019-01-25T04:30:51.853Z,73.82
2019-01-25T04:31:51.732Z,73.79
2019-01-25T04:32:51.789Z,73.84
2019-01-25T04:33:51.760Z,73.94
2019-01-25T04:34:51.520Z,73.99
2019-01-25T04:35:51.596Z,74.06
2019-01-25T04:36:51.791Z,74.24
2019-01-25T04:37:51.798Z,74.33
2019-01-25T04:38:51.679Z,74.46
2019-01-25T04:39:51.713Z,74.51
2019-01-25T04:40:51.864Z,74.66
2019-01-25T04:41:51.643Z,74.65
2019-01-25T04:42:51.838Z,74.93
2019-01-25T04:43:51.613Z,75.02
2019-01-25T04:44:51.572Z,75.1
2019-01-25T04:45:51.718Z,75.01
2019-01-25T04:46:52.269Z,75.21
2019-01-25T04:47:51.566Z,75.29
2019-01-25T04:48:51.503Z,75.48
2019-01-25T04:50:01.201Z,75.47
2019-01-25T04:50:51.606Z,75.5
2019-01-25T04:51:51.669Z,75.54
2019-01-25T04:52:52.828Z,75.5
2019-01-25T04:53:51.735Z,75.53
2019-01-25T04:54:51.824Z,75.68
2019-01-25T04:55:51.632Z,75.74
2019-01-25T04:56:51.605Z,75.63
2019-01-25T04:57:51.816Z,75.64
2019-01-25T04:58:51.521Z,75.99
2019-01-25T04:59:51.554Z,76.38
2019-01-25T05:00:51.534Z,76.5
2019-01-25T05:01:52.399Z,76.48
2019-01-25T05:02:51.520Z,76.66
2019-01-25T05:03:51.707Z,76.88
2019-01-25T05:04:51.588Z,77.15
2019-01-25T05:05:51.770Z,77.18
2019-01-25T05:06:51.790Z,77.37
2019-01-25T05:07:53.440Z,77.35
2019-01-25T05:08:51.680Z,77.1
2019-01-25T05:09:51.493Z,77.38
2019-01-25T05:10:52.166Z,77.96
2019-01-25T05:11:51.505Z,77.96
2019-01-25T05:12:53.354Z,77.81
2019-01-25T05:13:51.633Z,77.87
2019-01-25T05:14:51.590Z,77.85
2019-01-25T05:15:51.744Z,77.98
2019-01-25T05:16:51.756Z,78.54
2019-01-25T05:17:51.765Z,78.19
2019-01-25T05:18:51.497Z,78.31
2019-01-25T05:19:51.561Z,78.33
2019-01-25T05:20:51.599Z,78.39
2019-01-25T05:21:51.474Z,78.36
2019-01-25T05:22:51.670Z,79.04
2019-01-25T05:23:51.874Z,79.07
2019-01-25T05:24:51.600Z,79.08
2019-01-25T05:25:51.730Z,78.96
2019-01-25T05:26:51.793Z,79.08
2019-01-25T05:27:51.465Z,78.92
2019-01-25T05:28:51.741Z,79.11
2019-01-25T05:29:51.481Z,79.24
2019-01-25T05:30:52.343Z,79.33
2019-01-25T05:31:51.558Z,79.2
2019-01-25T05:32:51.833Z,79.19
2019-01-25T05:33:51.464Z,79.17
2019-01-25T05:34:51.689Z,79.16
2019-01-25T05:35:51.624Z,79.67
2019-01-25T05:36:51.491Z,79.56
2019-01-25T05:37:51.783Z,79.56
2019-01-25T05:38:51.797Z,79.79
2019-01-25T05:39:51.556Z,79.68
2019-01-25T05:40:51.679Z,79.67
2019-01-25T05:41:53.711Z,79.79
2019-01-25T05:42:53.722Z,79.61
2019-01-25T05:43:53.090Z,79.87
2019-01-25T05:44:52.653Z,79.9
2019-01-25T05:45:55.857Z,80.02
2019-01-25T05:46:51.587Z,80.24
2019-01-25T05:47:51.485Z,80.32
2019-01-25T05:48:51.799Z,80.02
2019-01-25T05:49:51.468Z,80.24
2019-01-25T05:50:51.487Z,80.26
2019-01-25T05:51:51.526Z,80.12
2019-01-25T05:52:51.540Z,79.97
2019-01-25T05:53:52.428Z,80.08
2019-01-25T05:54:51.473Z,80.13
2019-01-25T05:55:51.714Z,80.22
2019-01-25T05:56:51.462Z,80.27
2019-01-25T05:57:51.656Z,80.3
2019-01-25T05:58:51.470Z,80.1
2019-01-25T05:59:51.464Z,80.28
2019-01-25T06:00:51.550Z,80.11
2019-01-25T06:01:51.511Z,80.11
2019-01-25T06:02:51.458Z,80.28
2019-01-25T06:03:51.397Z,80.61
2019-01-25T06:04:51.450Z,80.42
2019-01-25T06:05:51.924Z,80.54
2019-01-25T06:06:51.359Z,80.65
2019-01-25T06:07:51.391Z,80.51
2019-01-25T06:08:51.626Z,80.85
2019-01-25T06:09:51.747Z,81.02
2019-01-25T06:10:51.577Z,81.04
2019-01-25T06:11:51.590Z,81.29
2019-01-25T06:12:51.601Z,81.31
2019-01-25T06:13:51.591Z,81.34
2019-01-25T06:14:51.546Z,81.13
2019-01-25T06:15:51.887Z,81.14
2019-01-25T06:16:51.803Z,80.82
2019-01-25T06:17:51.531Z,81.03
2019-01-25T06:18:52.401Z,80.87
2019-01-25T06:19:51.476Z,80.96
2019-01-25T06:20:51.823Z,80.79
2019-01-25T06:21:51.550Z,80.94
2019-01-25T06:22:51.508Z,81.07
2019-01-25T06:23:51.719Z,81.15
2019-01-25T06:24:51.425Z,81.26
2019-01-25T06:25:51.463Z,81.45
2019-01-25T06:26:51.443Z,81.47
2019-01-25T06:27:51.948Z,81.1
2019-01-25T06:28:51.618Z,81.05
2019-01-25T06:29:51.615Z,81.28
2019-01-25T06:30:52.416Z,81.3
2019-01-25T06:31:51.605Z,81.14
2019-01-25T06:32:51.584Z,81.34
2019-01-25T06:33:51.549Z,81.4
2019-01-25T06:34:51.415Z,81.63
2019-01-25T06:35:51.569Z,81.2
2019-01-25T06:36:51.706Z,81.51
2019-01-25T06:37:51.352Z,81.76
2019-01-25T06:38:51.336Z,81.62
2019-01-25T06:39:51.383Z,81.46
2019-01-25T06:40:51.425Z,81.28
2019-01-25T06:41:51.919Z,81.42
2019-01-25T06:42:51.541Z,81.28
2019-01-25T06:43:51.756Z,81.69
2019-01-25T06:44:51.392Z,81.7
2019-01-25T06:45:51.333Z,81.96
2019-01-25T06:46:52.313Z,81.94
2019-01-25T06:47:51.953Z,82.28
2019-01-25T06:48:51.481Z,82.11
2019-01-25T06:49:51.448Z,81.73
2019-01-25T06:50:51.809Z,81.61
2019-01-25T06:51:51.721Z,81.86
2019-01-25T06:52:51.478Z,82.03
2019-01-25T06:53:51.604Z,82.07
2019-01-25T06:54:51.301Z,82.07
2019-01-25T06:55:51.423Z,82.2
2019-01-25T06:56:51.355Z,82.3
2019-01-25T06:57:51.519Z,82.28
2019-01-25T06:58:51.776Z,82.17
2019-01-25T06:59:51.390Z,82.24
2019-01-25T07:00:51.687Z,82.07
2019-01-25T07:01:51.896Z,82.35
2019-01-25T07:02:51.615Z,82.53
2019-01-25T07:03:51.381Z,82.45
2019-01-25T07:04:52.890Z,82.68
2019-01-25T07:05:51.671Z,82.62
2019-01-25T07:06:51.369Z,82.58
2019-01-25T07:07:51.792Z,82.28
2019-01-25T07:08:53.151Z,82.31
2019-01-25T07:09:51.806Z,82.15
2019-01-25T07:10:51.388Z,82.21
2019-01-25T07:11:52.225Z,81.99
2019-01-25T07:12:51.322Z,81.97
2019-01-25T07:13:51.552Z,82.06
2019-01-25T07:14:51.300Z,82.1
2019-01-25T07:15:51.862Z,82.3
2019-01-25T07:16:51.390Z,82.47
2019-01-25T07:17:51.195Z,82.51
2019-01-25T07:18:51.474Z,82.33
2019-01-25T07:19:51.572Z,82.34
2019-01-25T07:20:51.385Z,82.23
2019-01-25T07:21:51.272Z,81.74
2019-01-25T07:22:51.615Z,81.98
2019-01-25T07:23:51.335Z,81.97
2019-01-25T07:24:57.582Z,82.28
2019-01-25T07:25:51.333Z,82.23
2019-01-25T07:26:51.255Z,82.44
2019-01-25T07:27:51.750Z,82.65
2019-01-25T07:28:51.414Z,82.91
2019-01-25T07:29:51.334Z,82.77
2019-01-25T07:30:51.362Z,82.56
2019-01-25T07:31:51.418Z,82.59
2019-01-25T07:32:51.352Z,82.55
2019-01-25T07:33:51.412Z,82.51
2019-01-25T07:34:51.441Z,82.49
2019-01-25T07:35:52.019Z,82.35
2019-01-25T07:36:52.348Z,82.44
2019-01-25T07:37:51.361Z,82.65
2019-01-25T07:38:51.274Z,82.76
2019-01-25T07:39:51.345Z,82.58
2019-01-25T07:40:51.377Z,82.56
2019-01-25T07:42:02.299Z,82.4
2019-01-25T07:42:51.384Z,82.44
2019-01-25T07:43:51.296Z,82.67
2019-01-25T07:44:52.099Z,82.41
2019-01-25T07:45:51.368Z,82.14
2019-01-25T07:46:51.311Z,82.1
2019-01-25T07:47:51.398Z,82.17
2019-01-25T07:48:51.333Z,82.25
2019-01-25T07:49:51.347Z,82.27
2019-01-25T07:50:51.238Z,82.21
2019-01-25T07:51:53.077Z,82.39
2019-01-25T07:52:51.326Z,82.25
2019-01-25T07:53:51.972Z,82.53
2019-01-25T07:54:51.709Z,82.66
2019-01-25T07:55:51.227Z,82.76
2019-01-25T07:56:51.497Z,83.42
2019-01-25T07:57:51.580Z,83.36
2019-01-25T07:58:51.543Z,83.05
2019-01-25T07:59:51.429Z,82.68
2019-01-25T08:00:51.604Z,82.69
2019-01-25T08:01:51.315Z,82.89
2019-01-25T08:02:51.336Z,83.26
2019-01-25T08:03:53.275Z,83.13
2019-01-25T08:04:52.071Z,82.79
2019-01-25T08:05:51.365Z,82.75
2019-01-25T08:06:51.323Z,82.72
2019-01-25T08:07:51.393Z,82.64
2019-01-25T08:08:51.614Z,82.77
2019-01-25T08:09:52.366Z,82.77
2019-01-25T08:10:51.533Z,82.94
2019-01-25T08:11:51.442Z,82.9
2019-01-25T08:12:51.274Z,82.75
2019-01-25T08:13:51.301Z,82.85
2019-01-25T08:14:51.692Z,82.58
2019-01-25T08:15:52.395Z,82.74
2019-01-25T08:16:54.266Z,82.79
2019-01-25T08:17:51.473Z,82.71
2019-01-25T08:18:52.129Z,82.59
2019-01-25T08:19:51.509Z,82.69
2019-01-25T08:20:51.241Z,82.77
2019-01-25T08:21:51.265Z,83.14
2019-01-25T08:22:51.699Z,82.98
2019-01-25T08:23:51.253Z,83.33
2019-01-25T08:24:52.106Z,83.18
2019-01-25T08:25:51.887Z,83.34
2019-01-25T08:26:51.683Z,83.23
2019-01-25T08:27:51.529Z,83.27
2019-01-25T08:28:51.436Z,83.18
2019-01-25T08:29:51.324Z,83.35
2019-01-25T08:30:51.865Z,83.31
2019-01-25T08:31:52.268Z,82.91
2019-01-25T08:32:52.119Z,82.85
2019-01-25T08:33:52.070Z,82.89
2019-01-25T08:34:51.256Z,83.01
2019-01-25T08:35:51.440Z,83.33
2019-01-25T08:36:51.345Z,83.5
2019-01-25T08:37:51.435Z,83.5
2019-01-25T08:38:51.561Z,83.2
2019-01-25T08:39:51.217Z,83.46
2019-01-25T08:40:51.158Z,83.65
2019-01-25T08:41:51.552Z,83.34
2019-01-25T08:42:51.547Z,83.61
2019-01-25T08:43:51.420Z,83.69
2019-01-25T08:44:51.243Z,83.57
2019-01-25T08:45:51.403Z,83.71
2019-01-25T08:46:51.315Z,83.57
2019-01-25T08:47:51.557Z,83.49
2019-01-25T08:48:51.280Z,83.52
2019-01-25T08:49:58.450Z,83.81
2019-01-25T08:50:51.863Z,83.54
2019-01-25T08:51:51.351Z,83.51
2019-01-25T08:52:51.612Z,83.65
2019-01-25T08:53:51.217Z,83.53
2019-01-25T08:54:51.286Z,83.62
2019-01-25T08:55:51.373Z,83.64
2019-01-25T08:56:51.439Z,84
2019-01-25T08:57:51.490Z,83.88
2019-01-25T08:58:51.267Z,83.62
2019-01-25T08:59:51.358Z,83.37
2019-01-25T09:00:52.185Z,83.67
2019-01-25T09:01:51.671Z,83.79
2019-01-25T09:02:51.106Z,83.84
2019-01-25T09:03:51.206Z,83.99
2019-01-25T09:04:51.283Z,84.01
2019-01-25T09:05:51.272Z,84.14
2019-01-25T09:06:51.324Z,84.24
2019-01-25T09:07:51.426Z,84.21
2019-01-25T09:08:51.527Z,84.46
2019-01-25T09:09:51.498Z,84.33
2019-01-25T09:10:51.409Z,84.04
2019-01-25T09:11:51.128Z,83.88
2019-01-25T09:12:51.261Z,83.87
2019-01-25T09:13:51.317Z,84.03
2019-01-25T09:14:51.548Z,83.99
2019-01-25T09:15:51.128Z,83.88
2019-01-25T09:16:51.317Z,84.08
2019-01-25T09:17:51.353Z,84
2019-01-25T09:18:51.227Z,83.93
2019-01-25T09:19:51.798Z,83.94
2019-01-25T09:20:51.233Z,83.61
2019-01-25T09:21:51.223Z,84.14
2019-01-25T09:22:51.173Z,84.24
2019-01-25T09:23:51.556Z,84.15
2019-01-25T09:24:51.162Z,84.04
2019-01-25T09:25:51.308Z,84.03
2019-01-25T09:26:51.122Z,84.28
2019-01-25T09:27:51.281Z,84.3
2019-01-25T09:28:51.445Z,84.42
2019-01-25T09:29:51.179Z,84.65
2019-01-25T09:30:51.275Z,84.6
2019-01-25T09:31:51.092Z,84.14
2019-01-25T09:32:51.096Z,84.37
2019-01-25T09:33:51.089Z,84.33
2019-01-25T09:34:51.184Z,84.61
2019-01-25T09:35:51.167Z,84.83
2019-01-25T09:36:51.594Z,84.77
2019-01-25T09:37:51.243Z,85.06
2019-01-25T09:38:51.131Z,84.99
2019-01-25T09:39:51.260Z,84.75
2019-01-25T09:40:52.870Z,84.7
2019-01-25T09:41:50.858Z,84.49
2019-01-25T09:42:51.075Z,84.23
2019-01-25T09:43:51.080Z,84.09
2019-01-25T09:44:51.149Z,84.07
2019-01-25T09:45:51.589Z,84.33
2019-01-25T09:46:51.510Z,84.41
2019-01-25T09:47:51.356Z,84.22
2019-01-25T09:48:51.210Z,84.15
2019-01-25T09:49:51.118Z,83.94
2019-01-25T09:50:53.184Z,83.77
2019-01-25T09:51:51.483Z,83.73
2019-01-25T09:52:51.400Z,83.39
2019-01-25T09:53:52.624Z,83.62
2019-01-25T09:54:51.499Z,83.51
2019-01-25T09:55:51.302Z,83.68
2019-01-25T09:56:50.993Z,84.25
2019-01-25T09:57:51.077Z,84.1
2019-01-25T09:58:51.102Z,83.45
2019-01-25T09:59:51.384Z,83.57
2019-01-25T10:00:51.083Z,83.6
2019-01-25T10:01:51.618Z,83.94
2019-01-25T10:02:51.372Z,83.99
2019-01-25T10:03:51.017Z,83.6
2019-01-25T10:04:51.127Z,83.72
2019-01-25T10:05:51.286Z,83.87
2019-01-25T10:06:51.315Z,83.76
2019-01-25T10:07:51.498Z,83.51
2019-01-25T10:08:51.433Z,83.71
2019-01-25T10:09:51.386Z,83.55
2019-01-25T10:10:51.006Z,83.62
2019-01-25T10:11:51.308Z,83.46
2019-01-25T10:12:50.980Z,83.47
2019-01-25T10:13:51.024Z,83.56
2019-01-25T10:14:51.166Z,83.75
2019-01-25T10:15:51.039Z,83.17
2019-01-25T10:16:51.668Z,83.45
2019-01-25T10:17:51.171Z,83.52
2019-01-25T10:18:51.057Z,83.77
2019-01-25T10:19:51.144Z,83.52
2019-01-25T10:20:51.046Z,83.51
2019-01-25T10:21:50.936Z,83.52
2019-01-25T10:22:50.996Z,83.42
2019-01-25T10:23:51.106Z,83.41
2019-01-25T10:24:51.010Z,83.52
2019-01-25T10:25:51.200Z,83.52
2019-01-25T10:26:51.748Z,83.73
2019-01-25T10:27:51.780Z,83.75
2019-01-25T10:28:51.437Z,83.25
2019-01-25T10:29:51.637Z,83.19
2019-01-25T10:30:51.054Z,83.02
2019-01-25T10:31:51.111Z,83.13
2019-01-25T10:32:51.350Z,83.25
2019-01-25T10:33:52.820Z,83.29
2019-01-25T10:34:52.770Z,83.04
2019-01-25T10:35:51.253Z,83.25
2019-01-25T10:36:51.430Z,83.23
2019-01-25T10:37:51.234Z,83.04
2019-01-25T10:38:51.203Z,83.06
2019-01-25T10:39:51.405Z,82.93
2019-01-25T10:40:51.177Z,82.86
2019-01-25T10:41:51.083Z,82.99
2019-01-25T10:42:53.989Z,82.72
2019-01-25T10:43:51.058Z,82.77
2019-01-25T10:44:51.458Z,83.07
2019-01-25T10:45:51.054Z,82.99
2019-01-25T10:46:52.553Z,83.05
2019-01-25T10:47:51.354Z,83.23
2019-01-25T10:48:51.361Z,83.22
2019-01-25T10:49:51.248Z,83.11
2019-01-25T10:50:52.781Z,83.08
2019-01-25T10:52:51.190Z,83.29
2019-01-25T10:53:51.053Z,83.44
2019-01-25T10:54:51.373Z,83.22
2019-01-25T10:55:51.034Z,83.44
2019-01-25T10:56:51.422Z,83.51
2019-01-25T10:57:51.326Z,83.6
2019-01-25T10:58:50.946Z,83.47
2019-01-25T10:59:51.109Z,83.51
2019-01-25T11:00:51.679Z,83.55
2019-01-25T11:01:51.187Z,83.55
2019-01-25T11:02:58.781Z,83.41
2019-01-25T11:03:51.092Z,83.76
2019-01-25T11:04:51.174Z,83.79
2019-01-25T11:05:50.980Z,83.69
2019-01-25T11:06:51.289Z,83.5
2019-01-25T11:07:51.198Z,83.18
2019-01-25T11:08:50.961Z,83.01
2019-01-25T11:09:50.924Z,82.94
2019-01-25T11:10:51.222Z,83.07
2019-01-25T11:11:51.585Z,82.87
2019-01-25T11:12:51.001Z,82.73
2019-01-25T11:13:51.153Z,82.57
2019-01-25T11:14:51.044Z,82.76
2019-01-25T11:15:51.160Z,82.66
2019-01-25T11:16:51.042Z,82.28
2019-01-25T11:17:51.085Z,82.03
2019-01-25T11:18:51.112Z,82.35
2019-01-25T11:19:51.086Z,82.33
2019-01-25T11:20:51.048Z,82.06
2019-01-25T11:21:51.321Z,81.69
2019-01-25T11:22:51.087Z,81.55
2019-01-25T11:23:51.637Z,81.67
2019-01-25T11:24:51.187Z,81.8
2019-01-25T11:25:50.907Z,81.59
2019-01-25T11:26:51.249Z,81.48
2019-01-25T11:27:50.892Z,81.66
2019-01-25T11:28:51.166Z,81.34
2019-01-25T11:29:51.753Z,81.61
2019-01-25T11:30:51.120Z,81.71
2019-01-25T11:31:51.070Z,81.64
2019-01-25T11:32:50.989Z,81.72
2019-01-25T11:33:51.039Z,81.87
2019-01-25T11:34:50.903Z,81.78
2019-01-25T11:35:51.165Z,81.84
2019-01-25T11:36:50.998Z,81.59
2019-01-25T11:37:51.183Z,81.4
2019-01-25T11:38:51.046Z,81.61
2019-01-25T11:39:51.018Z,81.85
2019-01-25T11:40:50.912Z,81.73
2019-01-25T11:41:51.439Z,81.65
2019-01-25T11:42:51.073Z,81.58
2019-01-25T11:43:51.567Z,81.22
2019-01-25T11:44:51.118Z,81.25
2019-01-25T11:45:54.606Z,81.32
2019-01-25T11:46:50.998Z,81.2
2019-01-25T11:47:50.855Z,81.16
2019-01-25T11:48:51.084Z,80.75
2019-01-25T11:49:51.333Z,80.78
2019-01-25T11:50:51.093Z,80.88
2019-01-25T11:51:51.138Z,80.91
2019-01-25T11:52:50.856Z,80.84
2019-01-25T11:53:51.451Z,80.91
2019-01-25T11:54:50.961Z,81.18
2019-01-25T11:55:51.061Z,81.08
2019-01-25T11:56:50.844Z,81.14
2019-01-25T11:57:50.851Z,80.76
2019-01-25T11:58:50.395Z,80.62
2019-01-25T11:59:51.187Z,80.61
2019-01-25T12:00:50.989Z,80.83
2019-01-25T12:02:51.313Z,80.74
2019-01-25T12:03:51.310Z,80.92
2019-01-25T12:04:51.014Z,80.81
2019-01-25T12:05:51.114Z,80.74
2019-01-25T12:06:50.831Z,80.81
2019-01-25T12:07:51.140Z,81.03
2019-01-25T12:08:51.036Z,81.01
2019-01-25T12:09:51.166Z,80.52
2019-01-25T12:10:50.930Z,80.42
2019-01-25T12:11:50.815Z,80.74
2019-01-25T12:12:50.975Z,80.68
2019-01-25T12:13:51.189Z,80.39
2019-01-25T12:14:51.187Z,80.65
2019-01-25T12:15:51.602Z,80.88
2019-01-25T12:16:50.892Z,80.57
2019-01-25T12:17:50.849Z,80.69
2019-01-25T12:18:51.131Z,80.64
2019-01-25T12:19:51.174Z,80.74
2019-01-25T12:20:51.439Z,80.7
2019-01-25T12:21:51.296Z,80.93
2019-01-25T12:22:52.600Z,80.75
2019-01-25T12:23:51.129Z,80.69
2019-01-25T12:24:51.744Z,80.89
2019-01-25T12:25:51.163Z,80.73
2019-01-25T12:26:50.888Z,80.48
2019-01-25T12:27:51.075Z,80.17
2019-01-25T12:28:51.065Z,80.18
2019-01-25T12:29:50.972Z,80.36
2019-01-25T12:30:51.630Z,80.35
2019-01-25T12:31:51.229Z,80.35
2019-01-25T12:32:51.198Z,79.91
2019-01-25T12:33:50.907Z,79.92
2019-01-25T12:34:50.855Z,80.17
2019-01-25T12:35:50.889Z,80.58
2019-01-25T12:36:50.837Z,79.94
2019-01-25T12:37:51.242Z,79.96
2019-01-25T12:38:51.256Z,80.09
2019-01-25T12:39:50.833Z,80.19
2019-01-25T12:40:50.794Z,80.36
2019-01-25T12:41:51.024Z,80.45
2019-01-25T12:42:51.187Z,80.28
2019-01-25T12:43:50.755Z,80.08
2019-01-25T12:44:51.218Z,80.01
2019-01-25T12:45:50.788Z,80.16
2019-01-25T12:46:50.776Z,79.67
2019-01-25T12:47:50.784Z,79.4
2019-01-25T12:48:50.766Z,79.32
2019-01-25T12:49:50.772Z,79.34
2019-01-25T12:50:50.763Z,79.28
2019-01-25T12:51:50.712Z,79.37
2019-01-25T12:52:52.041Z,79.52
2019-01-25T12:53:51.073Z,79.44
2019-01-25T12:54:50.876Z,79.35
2019-01-25T12:55:50.874Z,79.4
2019-01-25T12:56:50.755Z,79.48
2019-01-25T12:57:50.773Z,79.51